New England — V7HF3 — position and weather

sailwx.info

Track history (hours):
 
Tides and Currents Weather Stations Pressure Air Temp Water Temp Dewpoint Dewpoint Depression Visibility Wind Speed Wind Dir Waves Ship Positions

New England

Last reported at 2014-Dec-17 01:27 UTC. Time now 2014-Dec-18 07:28 UTC.
Position N 42°24' W 071°01'.

Length 183 m; draft 8.7 m.

Type: Tanker. MMSI: 538002220.

Date/timePositionNaut miles runAvg speedWind from/ knotsBaromVisibWave heightAir tempDewpointWater temp
2014-Dec-17 01:27N 42°24' W 071°01'6 0.9
2014-Dec-16 19:32N 42°23' W 070°53'1111.0
2014-Dec-16 18:33N 42°29' W 070°41'1413.4
2014-Dec-16 17:31N 42°37' W 070°25'  
2014-Dec-13 10:24N 42°25' W 070°45'4 0.1
2014-Dec-11 19:25N 42°24' W 070°50'9 9.8
2014-Dec-11 18:32N 42°28' W 070°40'7211.9
2014-Dec-11 12:29N 43°36' W 070°11'3 0.8
2014-Dec-11 08:29N 43°39' W 070°13'0 0.1
2014-Dec-11 07:33N 43°39' W 070°13'0 0.0
2014-Dec-11 06:33N 43°39' W 070°13'2 1.6
2014-Dec-11 05:33N 43°39' W 070°15'1 0.0
2014-Dec-09 23:10N 43°39' W 070°13'0 0.1
2014-Dec-09 22:31N 43°39' W 070°13'1 1.5
2014-Dec-09 21:33N 43°38' W 070°13'9 9.2
2014-Dec-09 20:33N 43°37' W 070°00'  
Track history (hours):
 
Tides and Currents Weather Stations Pressure Air Temp Water Temp Dewpoint Dewpoint Depression Visibility Wind Speed Wind Dir Waves Ship Positions

New England

Last reported at 2014-Dec-17 01:27 UTC. Time now 2014-Dec-18 07:28 UTC.
Position N 42°24' W 071°01'.

Length 183 m; draft 8.7 m.

Type: Tanker. MMSI: 538002220.

Date/timePositionNaut miles runAvg speedWind from/ knotsBaromVisibWave heightAir tempDewpointWater temp
2014-Dec-17 01:27N 42°24' W 071°01'6 0.9
2014-Dec-16 19:32N 42°23' W 070°53'1111.0
2014-Dec-16 18:33N 42°29' W 070°41'1413.4
2014-Dec-16 17:31N 42°37' W 070°25'  
2014-Dec-13 10:24N 42°25' W 070°45'4 0.1
2014-Dec-11 19:25N 42°24' W 070°50'9 9.8
2014-Dec-11 18:32N 42°28' W 070°40'7211.9
2014-Dec-11 12:29N 43°36' W 070°11'3 0.8
2014-Dec-11 08:29N 43°39' W 070°13'0 0.1
2014-Dec-11 07:33N 43°39' W 070°13'0 0.0
2014-Dec-11 06:33N 43°39' W 070°13'2 1.6
2014-Dec-11 05:33N 43°39' W 070°15'1 0.0
2014-Dec-09 23:10N 43°39' W 070°13'0 0.1
2014-Dec-09 22:31N 43°39' W 070°13'1 1.5
2014-Dec-09 21:33N 43°38' W 070°13'9 9.2
2014-Dec-09 20:33N 43°37' W 070°00'  

Dump ship's entire track history